Time;durP1;ratioP1;P1;durP2;ratioP2;P2;SDS_P1;SDS_P2;PMS_P1;PMS_P2;Temp;Humidity;BMP_temperature;BMP_pressure;BME280_temperature;BME280_humidity;BME280_pressure;Samples;Min_cycle;Max_cycle;Signal;HPM_P1;HPM_P2
2021/12/23 00:00:40;;;;;;;66.50;32.20;;;;;;;-3.94;74.04;101011.73;102921;1316;138612;-65
2021/12/23 00:03:12;;;;;;;63.30;31.40;;;;;;;-3.89;74.38;101008.99;102980;1315;108755;-67
2021/12/23 00:05:44;;;;;;;63.10;31.10;;;;;;;-3.88;74.06;101007.52;102935;1316;140145;-66
2021/12/23 00:08:16;;;;;;;63.20;30.90;;;;;;;-3.88;74.24;101001.90;103123;1316;96539;-66
2021/12/23 00:10:52;;;;;;;67.10;33.00;;;;;;;-3.87;73.99;100994.13;103132;1315;111505;-65
2021/12/23 00:13:24;;;;;;;68.10;33.50;;;;;;;-3.85;74.13;100987.73;103063;1316;138370;-66
2021/12/23 00:16:04;;;;;;;67.20;32.10;;;;;;;-3.83;74.15;100989.02;103130;1315;109188;-66
2021/12/23 00:18:55;;;;;;;68.60;33.20;;;;;;;-3.84;74.33;100980.64;103026;1319;138162;-66
2021/12/23 00:24:17;;;;;;;66.50;31.60;;;;;;;-3.91;74.16;100976.15;103384;1312;137940;-68
2021/12/23 00:26:49;;;;;;;62.60;31.40;;;;;;;-3.93;74.21;100970.45;103431;1309;109388;-67
2021/12/23 00:29:21;;;;;;;71.10;32.80;;;;;;;-3.95;74.05;100971.05;104650;1312;108930;-66
2021/12/23 00:31:53;;;;;;;63.90;32.00;;;;;;;-3.96;74.38;100965.59;104539;1310;138664;-66
2021/12/23 00:34:25;;;;;;;61.40;30.40;;;;;;;-3.94;74.46;100968.05;104703;1310;95726;-66
2021/12/23 00:36:58;;;;;;;62.20;29.90;;;;;;;-3.93;74.41;100968.08;103686;1313;138242;-67
2021/12/23 00:39:30;;;;;;;63.00;30.50;;;;;;;-3.92;74.25;100965.42;103359;1313;109103;-66
2021/12/23 00:42:07;;;;;;;60.60;30.80;;;;;;;-3.87;74.02;100965.42;103301;1312;139162;-66
2021/12/23 00:44:45;;;;;;;58.80;30.40;;;;;;;-3.85;74.28;100963.63;103368;1312;96513;-65
2021/12/23 00:47:17;;;;;;;66.30;31.50;;;;;;;-3.84;74.12;100959.58;103333;1309;96358;-66
2021/12/23 00:49:49;;;;;;;66.00;32.80;;;;;;;-3.85;74.30;100956.48;104623;1312;137540;-66
2021/12/23 00:52:28;;;;;;;67.50;32.70;;;;;;;-3.89;74.10;100953.31;104036;1313;108688;-65
2021/12/23 00:55:00;;;;;;;61.00;30.20;;;;;;;-3.94;73.95;100950.91;104036;1313;137820;-66
2021/12/23 00:57:37;;;;;;;69.80;32.70;;;;;;;-3.96;74.14;100950.31;103213;1312;96511;-66
2021/12/23 01:00:09;;;;;;;;;;;;;;;-3.95;74.56;100944.71;103201;1313;137878;-66
2021/12/23 01:02:44;;;;;;;64.40;30.90;;;;;;;-3.99;74.44;100943.23;103646;1312;111156;-65
2021/12/23 01:05:19;;;;;;;58.20;29.50;;;;;;;-4.00;74.27;100938.77;103329;1310;108506;-67
2021/12/23 01:07:51;;;;;;;64.00;31.30;;;;;;;-4.02;74.36;100939.55;103858;1313;140905;-67
2021/12/23 01:10:25;;;;;;;58.00;28.20;;;;;;;-4.01;74.30;100937.71;103394;1313;96446;-67
2021/12/23 01:13:00;;;;;;;61.70;30.70;;;;;;;-3.97;74.18;100936.67;104768;1311;138995;-66
2021/12/23 01:18:24;;;;;;;60.60;29.90;;;;;;;-3.96;74.43;100930.59;103408;1316;138500;-65
2021/12/23 01:21:04;;;;;;;62.20;30.10;;;;;;;-3.97;74.51;100927.66;103422;1312;107875;-68
2021/12/23 01:23:41;;;;;;;60.30;28.50;;;;;;;-3.98;74.23;100925.58;104794;1313;95174;-67
2021/12/23 01:26:12;;;;;;;;;;;;;;;-4.01;74.29;100925.14;104419;1310;137590;-67
2021/12/23 01:28:44;;;;;;;60.00;27.90;;;;;;;-4.03;74.27;100921.84;103508;1312;112116;-67
2021/12/23 01:31:15;;;;;;;63.30;29.40;;;;;;;-4.06;74.58;100918.36;103358;1312;138231;-66
2021/12/23 01:33:47;;;;;;;63.60;29.30;;;;;;;-4.07;74.68;100921.55;103466;1313;105983;-66
2021/12/23 01:36:22;;;;;;;55.70;26.60;;;;;;;-4.10;74.49;100923.48;103330;1313;138958;-65
2021/12/23 01:38:55;;;;;;;53.70;25.80;;;;;;;-4.12;74.54;100921.20;103646;1313;96518;-67
2021/12/23 01:41:28;;;;;;;55.10;27.00;;;;;;;-4.11;74.86;100916.29;103563;1309;110733;-67
2021/12/23 01:44:00;;;;;;;53.00;27.10;;;;;;;-4.11;74.70;100914.08;103561;1309;138522;-68
2021/12/23 01:46:32;;;;;;;56.40;27.50;;;;;;;-4.11;74.67;100913.25;103559;1312;108386;-65
2021/12/23 01:49:06;;;;;;;57.40;27.90;;;;;;;-4.09;74.58;100909.24;103536;1310;137921;-65
2021/12/23 01:51:39;;;;;;;52.80;26.60;;;;;;;-4.08;74.56;100909.45;103474;1312;96506;-66
2021/12/23 01:54:11;;;;;;;61.50;29.30;;;;;;;-4.11;74.61;100901.02;103604;1310;138597;-67
2021/12/23 01:57:08;;;;;;;60.30;29.50;;;;;;;-4.12;74.62;100893.49;103669;1310;108310;-66
2021/12/23 01:59:40;;;;;;;56.90;26.50;;;;;;;-4.14;74.76;100886.28;103423;1313;108300;-66
2021/12/23 02:02:14;;;;;;;56.50;26.40;;;;;;;-4.19;74.71;100882.52;103343;1312;137855;-65
2021/12/23 02:04:49;;;;;;;56.50;26.80;;;;;;;-4.23;74.63;100877.09;103532;1309;96984;-65
2021/12/23 02:07:21;;;;;;;56.10;27.40;;;;;;;-4.26;74.74;100876.00;103444;1310;138400;-67
2021/12/23 02:09:56;;;;;;;51.70;26.20;;;;;;;-4.27;74.83;100874.46;103644;1310;107924;-67
2021/12/23 02:12:28;;;;;;;52.80;26.40;;;;;;;-4.25;75.03;100876.38;103348;1313;138636;-66
2021/12/23 02:15:00;;;;;;;56.40;27.50;;;;;;;-4.23;75.09;100865.58;104921;1314;94512;-67
2021/12/23 02:17:35;;;;;;;48.30;25.30;;;;;;;-4.18;74.73;100863.02;104975;1309;94799;-65
2021/12/23 02:20:09;;;;;;;55.00;26.70;;;;;;;-4.16;74.48;100859.00;103834;1314;137419;-66
2021/12/23 02:22:42;;;;;;;54.70;27.30;;;;;;;-4.15;74.54;100853.61;103869;1309;109226;-66
2021/12/23 02:25:15;;;;;;;57.90;27.50;;;;;;;-4.18;74.46;100849.96;103366;1313;138657;-67
2021/12/23 02:27:48;;;;;;;56.20;27.50;;;;;;;-4.21;74.55;100843.73;103494;1311;96523;-65
2021/12/23 02:30:23;;;;;;;56.60;27.90;;;;;;;-4.23;74.63;100843.82;103394;1310;139570;-66
2021/12/23 02:32:55;;;;;;;54.60;25.60;;;;;;;-4.27;74.70;100836.56;103463;1312;111226;-65
2021/12/23 02:35:27;;;;;;;50.70;24.30;;;;;;;-4.30;74.37;100831.38;103367;1315;108431;-66
2021/12/23 02:37:59;;;;;;;53.90;25.60;;;;;;;-4.34;74.11;100827.48;104510;1313;138435;-67
2021/12/23 02:40:35;;;;;;;53.00;26.10;;;;;;;-4.34;74.71;100823.21;104729;1309;95003;-67
2021/12/23 02:43:14;;;;;;;51.50;23.90;;;;;;;-4.35;74.47;100819.30;103787;1319;138336;-67
2021/12/23 02:45:48;;;;;;;57.60;26.10;;;;;;;-4.36;74.52;100819.06;104787;1313;111160;-67
2021/12/23 02:48:22;;;;;;;53.10;25.80;;;;;;;-4.36;74.51;100815.00;104603;1313;138346;-67
2021/12/23 02:50:57;;;;;;;55.40;26.50;;;;;;;-4.34;74.46;100816.25;104424;1312;109096;-67
2021/12/23 02:53:28;;;;;;;52.80;25.20;;;;;;;-4.35;74.48;100810.96;104939;1310;95643;-67
2021/12/23 02:56:06;;;;;;;50.90;24.90;;;;;;;-4.37;74.20;100807.15;104065;1316;137747;-67
2021/12/23 02:58:39;;;;;;;58.20;28.60;;;;;;;-4.42;74.45;100805.11;104938;1306;111094;-67
2021/12/23 03:01:11;;;;;;;47.50;23.40;;;;;;;-4.47;74.20;100803.58;104864;1309;137965;-67
2021/12/23 03:03:44;;;;;;;50.80;24.20;;;;;;;-4.52;74.21;100801.34;104279;1313;109019;-66
2021/12/23 03:06:18;;;;;;;48.20;23.60;;;;;;;-4.55;74.29;100802.07;104066;1309;138702;-66
2021/12/23 03:08:52;;;;;;;50.40;25.00;;;;;;;-4.59;74.31;100799.55;104115;1313;94887;-66
2021/12/23 03:11:25;;;;;;;48.00;23.30;;;;;;;-4.59;74.42;100797.53;104995;1313;111242;-66
2021/12/23 03:13:58;;;;;;;54.30;25.60;;;;;;;-4.58;74.54;100794.50;103969;1310;138662;-66
2021/12/23 03:16:32;;;;;;;48.80;24.40;;;;;;;-4.58;74.61;100793.16;104762;1312;108919;-66
2021/12/23 03:19:05;;;;;;;53.00;26.00;;;;;;;-4.59;74.45;100788.02;104590;1312;138709;-66
2021/12/23 03:21:38;;;;;;;50.50;26.10;;;;;;;-4.61;74.22;100783.04;103757;1312;96649;-65
2021/12/23 03:24:09;;;;;;;54.30;26.60;;;;;;;-4.64;74.43;100779.52;103247;1312;137789;-67
2021/12/23 03:26:41;;;;;;;54.90;26.30;;;;;;;-4.68;74.40;100778.52;103426;1311;108525;-66
2021/12/23 03:29:14;;;;;;;56.20;26.30;;;;;;;-4.69;74.30;100780.81;103347;1317;108774;-66
2021/12/23 03:31:46;;;;;;;59.10;28.80;;;;;;;-4.72;74.27;100773.43;103305;1314;138112;-66
2021/12/23 03:34:18;;;;;;;54.30;26.40;;;;;;;-4.75;74.28;100773.83;103712;1312;97011;-65
2021/12/23 03:36:50;;;;;;;51.30;25.60;;;;;;;-4.78;74.27;100770.31;103249;1312;141882;-65
2021/12/23 03:39:22;;;;;;;56.40;27.00;;;;;;;-4.83;74.42;100763.34;103481;1316;106854;-66
2021/12/23 03:41:54;;;;;;;50.40;25.40;;;;;;;-4.85;74.37;100765.65;103384;1316;139751;-67
2021/12/23 03:44:26;;;;;;;53.60;26.10;;;;;;;-4.87;74.64;100761.02;103450;1310;96595;-66
2021/12/23 03:46:58;;;;;;;54.10;25.50;;;;;;;-4.84;74.52;100757.56;103424;1313;96543;-66
2021/12/23 03:49:31;;;;;;;52.30;26.80;;;;;;;-4.83;74.62;100755.36;103472;1312;137695;-65
2021/12/23 03:52:03;;;;;;;57.70;28.10;;;;;;;-4.86;74.37;100754.43;103496;1312;108916;-65
2021/12/23 03:54:36;;;;;;;53.60;27.20;;;;;;;-4.86;74.80;100752.04;103342;1316;138098;-65
2021/12/23 03:57:08;;;;;;;57.10;27.90;;;;;;;-4.88;74.54;100750.77;103429;1312;96651;-66
2021/12/23 03:59:41;;;;;;;54.00;28.40;;;;;;;-4.88;74.70;100741.13;103496;1312;96625;-65
2021/12/23 04:02:13;;;;;;;62.50;29.40;;;;;;;-4.88;74.69;100737.38;103294;1313;137503;-66
2021/12/23 04:04:46;;;;;;;59.30;29.50;;;;;;;-4.88;74.53;100732.14;103417;1312;108969;-65
2021/12/23 04:07:19;;;;;;;60.90;29.30;;;;;;;-4.90;74.84;100727.83;103123;1312;138539;-67
2021/12/23 04:09:50;;;;;;;51.60;26.20;;;;;;;-4.90;74.68;100722.40;103101;1312;96606;-67
2021/12/23 04:12:22;;;;;;;59.60;28.80;;;;;;;-4.89;74.73;100716.49;103194;1311;138675;-67
2021/12/23 04:14:54;;;;;;;60.20;29.10;;;;;;;-4.86;74.74;100706.92;103067;1312;204242;-67
2021/12/23 04:17:26;;;;;;;57.60;27.10;;;;;;;-4.83;74.58;100708.39;103376;1317;108956;-66
2021/12/23 04:20:09;;;;;;;54.00;26.40;;;;;;;-4.80;74.38;100703.91;103168;1312;138821;-67
2021/12/23 04:22:41;;;;;;;52.40;26.30;;;;;;;-4.78;74.42;100700.61;103396;1312;96618;-66
2021/12/23 04:25:15;;;;;;;59.30;28.70;;;;;;;-4.77;74.28;100696.56;103242;1312;137698;-66
2021/12/23 04:27:49;;;;;;;57.50;28.30;;;;;;;-4.76;74.60;100692.36;104681;1312;110809;-66
2021/12/23 04:30:22;;;;;;;57.50;28.40;;;;;;;-4.75;74.51;100683.75;103915;1313;138117;-65
2021/12/23 04:32:54;;;;;;;57.50;29.10;;;;;;;-4.74;74.31;100678.52;104634;1312;108057;-66
2021/12/23 04:35:26;;;;;;;57.10;29.10;;;;;;;-4.73;74.39;100675.33;104660;1312;94682;-66
2021/12/23 04:37:58;;;;;;;60.60;29.30;;;;;;;-4.73;74.16;100669.55;104582;1312;137665;-66
2021/12/23 04:40:30;;;;;;;55.00;27.60;;;;;;;-4.74;73.95;100670.89;104143;1312;111213;-66
2021/12/23 04:43:03;;;;;;;51.90;26.90;;;;;;;-4.74;74.13;100669.05;103282;1316;138719;-66
2021/12/23 04:45:35;;;;;;;57.30;27.20;;;;;;;-4.74;73.82;100661.58;103398;1311;109055;-67
2021/12/23 04:48:07;;;;;;;51.00;27.30;;;;;;;-4.74;73.78;100652.41;103307;1313;140554;-67
2021/12/23 04:50:39;;;;;;;52.80;28.00;;;;;;;-4.72;73.89;100648.05;103483;1312;97261;-67
2021/12/23 04:53:11;;;;;;;61.70;30.70;;;;;;;-4.74;73.93;100645.27;103447;1312;111220;-66
2021/12/23 04:55:43;;;;;;;60.40;29.20;;;;;;;-4.74;73.86;100637.64;103193;1314;137936;-66
2021/12/23 04:58:15;;;;;;;59.90;28.60;;;;;;;-4.76;73.90;100632.48;103408;1312;108985;-66
2021/12/23 05:00:49;;;;;;;55.20;29.60;;;;;;;-4.81;73.83;100629.95;103770;1313;138683;-65
2021/12/23 05:03:23;;;;;;;62.70;30.20;;;;;;;-4.85;74.07;100628.59;104751;1313;94418;-66
2021/12/23 05:05:56;;;;;;;62.70;30.70;;;;;;;-4.89;74.02;100627.60;104511;1312;138682;-66
2021/12/23 05:08:28;;;;;;;56.70;29.60;;;;;;;-4.92;73.98;100620.38;104559;1312;107955;-67
2021/12/23 05:10:59;;;;;;;61.40;28.30;;;;;;;-4.92;74.02;100620.39;103394;1313;107962;-66
2021/12/23 05:13:31;;;;;;;57.00;29.70;;;;;;;-4.92;74.07;100611.41;103235;1313;138789;-66
2021/12/23 05:16:03;;;;;;;65.90;31.30;;;;;;;-4.90;73.97;100611.98;103565;1313;96518;-65
2021/12/23 05:18:35;;;;;;;57.80;30.60;;;;;;;-4.90;74.04;100608.94;103441;1313;139138;-66
2021/12/23 05:21:07;;;;;;;61.20;30.40;;;;;;;-4.90;74.06;100608.77;103381;1313;109149;-67
2021/12/23 05:23:39;;;;;;;58.30;29.30;;;;;;;-4.87;74.14;100607.65;103327;1310;108949;-68
2021/12/23 05:26:11;;;;;;;61.70;30.60;;;;;;;-4.85;73.81;100598.41;103269;1317;138650;-68
2021/12/23 05:28:43;;;;;;;59.70;30.50;;;;;;;-4.83;73.97;100601.89;103471;1313;96434;-67
2021/12/23 05:31:15;;;;;;;64.60;33.00;;;;;;;-4.81;74.05;100598.05;103292;1312;137909;-68
2021/12/23 05:33:48;;;;;;;60.70;30.20;;;;;;;-4.82;73.83;100594.60;103462;1316;108643;-68
2021/12/23 05:36:20;;;;;;;61.40;31.40;;;;;;;-4.85;73.77;100588.08;103495;1315;138193;-67
2021/12/23 05:38:52;;;;;;;64.90;30.90;;;;;;;-4.88;73.72;100587.11;103513;1312;96561;-67
2021/12/23 05:41:27;;;;;;;61.30;32.20;;;;;;;-4.91;73.87;100582.79;103491;1312;96593;-67
2021/12/23 05:43:59;;;;;;;64.10;32.60;;;;;;;-4.96;73.74;100578.01;103372;1312;137948;-66
2021/12/23 05:46:31;;;;;;;58.80;28.40;;;;;;;-4.97;74.01;100571.20;103536;1309;108905;-66
2021/12/23 05:49:03;;;;;;;63.30;29.20;;;;;;;-4.96;73.95;100576.85;103543;1314;139441;-67
2021/12/23 05:51:36;;;;;;;52.70;27.40;;;;;;;-4.93;74.02;100573.91;103565;1310;96577;-66
2021/12/23 05:54:08;;;;;;;60.00;30.00;;;;;;;-4.87;73.69;100571.70;103557;1309;138213;-65
2021/12/23 05:56:40;;;;;;;56.00;28.00;;;;;;;-4.82;73.58;100569.00;103465;1316;110896;-67
2021/12/23 05:59:12;;;;;;;60.00;30.40;;;;;;;-4.83;73.52;100565.77;103517;1312;110178;-68
2021/12/23 06:01:43;;;;;;;57.40;28.50;;;;;;;-4.83;73.67;100562.19;104139;1307;138773;-65
2021/12/23 06:04:15;;;;;;;56.90;28.20;;;;;;;-4.84;73.46;100566.57;104189;1312;96606;-66
2021/12/23 06:06:51;;;;;;;58.50;27.80;;;;;;;-4.84;73.35;100572.16;103340;1310;139999;-67
2021/12/23 06:09:23;;;;;;;62.90;31.20;;;;;;;-4.86;73.24;100571.40;103410;1316;111687;-66
2021/12/23 06:11:55;;;;;;;61.20;29.70;;;;;;;-4.87;73.36;100566.29;103288;1313;139388;-67
2021/12/23 06:14:27;;;;;;;60.40;28.80;;;;;;;-4.87;73.53;100562.88;103354;1314;108892;-67
2021/12/23 06:17:01;;;;;;;55.60;28.70;;;;;;;-4.87;73.56;100559.18;103875;1315;96500;-67
2021/12/23 06:19:33;;;;;;;57.40;27.60;;;;;;;-4.84;73.72;100546.88;103581;1312;138274;-66
2021/12/23 06:22:05;;;;;;;56.30;28.70;;;;;;;-4.83;73.48;100546.95;103662;1310;111226;-66
2021/12/23 06:24:38;;;;;;;58.80;29.50;;;;;;;-4.80;73.21;100547.54;103409;1312;137785;-67
2021/12/23 06:27:10;;;;;;;56.20;28.40;;;;;;;-4.77;73.45;100549.35;103527;1310;108807;-67
2021/12/23 06:29:42;;;;;;;55.90;29.80;;;;;;;-4.75;73.26;100552.10;103460;1315;96525;-66
2021/12/23 06:32:14;;;;;;;60.20;28.30;;;;;;;-4.75;73.06;100550.42;104476;1312;137705;-67
2021/12/23 06:34:46;;;;;;;61.20;30.90;;;;;;;-4.76;72.93;100546.98;103941;1316;111218;-64
2021/12/23 06:37:18;;;;;;;58.30;29.10;;;;;;;-4.80;72.94;100542.62;103479;1309;138159;-67
2021/12/23 06:39:50;;;;;;;56.90;27.10;;;;;;;-4.84;73.18;100540.13;103420;1316;108713;-66
2021/12/23 06:42:23;;;;;;;55.80;27.90;;;;;;;-4.88;73.09;100544.03;104768;1316;138906;-67
2021/12/23 06:44:55;;;;;;;58.70;27.90;;;;;;;-4.89;73.07;100542.30;104776;1314;95444;-67
2021/12/23 06:47:26;;;;;;;58.40;27.10;;;;;;;-4.87;73.25;100536.44;104678;1316;111189;-67
2021/12/23 06:49:58;;;;;;;57.30;27.60;;;;;;;-4.86;73.16;100537.15;104762;1310;138032;-67
2021/12/23 06:52:31;;;;;;;57.60;29.40;;;;;;;-4.86;73.09;100539.16;104875;1310;108624;-67
2021/12/23 06:55:03;;;;;;;61.80;28.50;;;;;;;-4.87;73.02;100536.42;104475;1315;138366;-66
2021/12/23 06:57:35;;;;;;;65.90;31.30;;;;;;;-4.84;73.11;100533.67;104022;1312;96527;-67
2021/12/23 07:00:11;;;;;;;60.30;30.40;;;;;;;-4.81;73.00;100535.45;103437;1313;137870;-67
2021/12/23 07:02:42;;;;;;;56.50;30.30;;;;;;;-4.81;73.22;100532.73;104706;1313;106923;-68
2021/12/23 07:05:15;;;;;;;65.40;30.30;;;;;;;-4.81;73.11;100529.01;103397;1310;107903;-66
2021/12/23 07:07:56;;;;;;;54.80;28.70;;;;;;;-4.82;72.77;100527.80;103460;1316;138686;-66
2021/12/23 07:10:30;;;;;;;58.10;29.10;;;;;;;-4.82;72.83;100529.83;104608;1313;94395;-69
2021/12/23 07:13:02;;;;;;;59.10;27.90;;;;;;;-4.79;73.17;100525.85;104746;1313;138695;-68
2021/12/23 07:15:36;;;;;;;58.10;29.20;;;;;;;-4.76;72.70;100524.27;104663;1313;109152;-67
2021/12/23 07:18:07;;;;;;;62.20;32.80;;;;;;;-4.74;72.82;100517.05;103688;1312;137895;-66
2021/12/23 07:20:39;;;;;;;62.30;30.00;;;;;;;-4.70;72.78;100514.63;103552;1316;96514;-66
2021/12/23 07:23:11;;;;;;;62.90;32.80;;;;;;;-4.67;72.58;100515.41;103489;1316;96504;-67
2021/12/23 07:25:43;;;;;;;66.00;31.90;;;;;;;-4.68;72.58;100518.23;103533;1312;138814;-65
2021/12/23 07:28:15;;;;;;;66.80;31.80;;;;;;;-4.70;72.60;100513.60;103542;1313;109205;-67
2021/12/23 07:30:47;;;;;;;66.40;31.40;;;;;;;-4.71;72.45;100509.84;103395;1316;137982;-66
2021/12/23 07:33:19;;;;;;;60.70;31.20;;;;;;;-4.71;72.62;100500.68;103564;1313;96538;-67
2021/12/23 07:35:51;;;;;;;61.10;30.10;;;;;;;-4.69;72.67;100503.11;103604;1316;96793;-67
2021/12/23 07:38:22;;;;;;;63.80;31.70;;;;;;;-4.67;72.53;100497.44;103498;1315;138193;-69
2021/12/23 07:40:54;;;;;;;69.60;32.50;;;;;;;-4.64;72.36;100498.37;103458;1315;109104;-67
2021/12/23 07:46:31;;;;;;;65.90;32.70;;;;;;;-4.65;72.13;100489.36;103001;1315;97191;-67
2021/12/23 07:49:05;;;;;;;66.60;33.20;;;;;;;-4.65;72.16;100490.02;103001;1317;138880;-67
2021/12/23 07:51:39;;;;;;;73.20;33.20;;;;;;;-4.66;72.30;100485.42;103826;1314;110109;-67
2021/12/23 07:54:11;;;;;;;68.70;32.50;;;;;;;-4.68;72.29;100486.52;104285;1316;138360;-67
2021/12/23 07:56:43;;;;;;;66.10;32.20;;;;;;;-4.69;72.55;100480.05;104396;1316;108937;-68
2021/12/23 07:59:14;;;;;;;68.00;31.60;;;;;;;-4.65;72.38;100482.05;104351;1315;94974;-67
2021/12/23 08:01:47;;;;;;;60.70;30.80;;;;;;;-4.62;72.26;100471.13;104163;1316;137845;-68
2021/12/23 08:04:19;;;;;;;68.00;32.70;;;;;;;-4.57;72.59;100466.69;104265;1315;111189;-67
2021/12/23 08:06:55;;;;;;;65.50;33.00;;;;;;;-4.53;72.19;100467.51;102791;1316;137518;-67
2021/12/23 08:09:27;;;;;;;65.00;34.50;;;;;;;-4.49;72.55;100464.08;103022;1316;108907;-67
2021/12/23 08:12:00;;;;;;;71.00;33.70;;;;;;;-4.47;72.26;100470.58;103018;1316;97122;-68
2021/12/23 08:14:32;;;;;;;71.20;35.80;;;;;;;-4.50;71.91;100459.28;103791;1316;139841;-68
2021/12/23 08:17:24;;;;;;;65.40;33.40;;;;;;;-4.50;72.01;100447.89;104344;1315;111336;-69
2021/12/23 08:19:55;;;;;;;69.80;32.70;;;;;;;-4.50;72.34;100447.57;104564;1313;138995;-67
2021/12/23 08:22:27;;;;;;;59.90;31.00;;;;;;;-4.48;72.36;100446.63;104635;1315;108804;-68
2021/12/23 08:25:00;;;;;;;59.90;30.20;;;;;;;-4.45;71.94;100448.92;104339;1312;138850;-68
2021/12/23 08:27:33;;;;;;;60.10;30.40;;;;;;;-4.43;71.92;100438.66;104677;1313;94762;-67
2021/12/23 08:30:08;;;;;;;65.80;34.70;;;;;;;-4.39;72.00;100435.70;104703;1313;110228;-68
2021/12/23 08:32:40;;;;;;;66.00;33.90;;;;;;;-4.37;71.77;100432.72;104523;1312;137485;-67
2021/12/23 08:35:13;;;;;;;70.30;32.40;;;;;;;-4.34;72.02;100433.12;104691;1313;109189;-67
2021/12/23 08:37:49;;;;;;;68.20;34.70;;;;;;;-4.34;72.15;100432.11;104605;1315;138283;-69
2021/12/23 08:40:23;;;;;;;63.90;32.30;;;;;;;-4.34;72.08;100430.23;103581;1316;96448;-67
2021/12/23 08:42:57;;;;;;;64.20;32.50;;;;;;;-4.36;71.85;100423.23;103157;1316;140386;-68
2021/12/23 08:45:31;;;;;;;65.80;31.90;;;;;;;-4.35;71.77;100423.60;103318;1313;107740;-68
2021/12/23 08:48:03;;;;;;;71.50;33.10;;;;;;;-4.34;71.62;100415.98;103200;1316;109205;-68
2021/12/23 08:50:35;;;;;;;65.90;34.30;;;;;;;-4.32;72.11;100408.73;103140;1310;139151;-67
2021/12/23 08:53:07;;;;;;;64.30;32.60;;;;;;;-4.30;71.95;100404.06;103372;1312;96507;-67
2021/12/23 08:55:39;;;;;;;65.60;32.40;;;;;;;-4.27;71.91;100399.41;103131;1317;137788;-67
2021/12/23 08:58:11;;;;;;;66.80;35.10;;;;;;;-4.25;71.95;100395.21;103385;1317;108854;-67
2021/12/23 09:00:44;;;;;;;67.90;34.70;;;;;;;-4.23;71.67;100390.02;103257;1316;139132;-66
2021/12/23 09:03:16;;;;;;;64.80;32.50;;;;;;;-4.22;71.57;100391.89;103323;1314;96694;-68
2021/12/23 09:05:48;;;;;;;63.90;32.10;;;;;;;-4.21;71.67;100392.42;103368;1313;96409;-67
2021/12/23 09:08:20;;;;;;;61.30;31.20;;;;;;;-4.19;71.48;100386.22;103249;1316;139742;-67
2021/12/23 09:10:52;;;;;;;62.10;32.00;;;;;;;-4.15;71.60;100386.48;103311;1316;109244;-67
2021/12/23 09:13:25;;;;;;;65.70;33.90;;;;;;;-4.12;71.53;100385.73;103287;1317;138443;-67
2021/12/23 09:15:57;;;;;;;73.30;34.70;;;;;;;-4.08;71.39;100384.00;103359;1315;96632;-68
2021/12/23 09:18:29;;;;;;;68.70;34.10;;;;;;;-4.04;71.33;100379.02;103319;1315;139216;-68
2021/12/23 09:21:02;;;;;;;63.60;33.00;;;;;;;-4.01;71.27;100376.89;103407;1312;110781;-68
2021/12/23 09:23:43;;;;;;;68.90;35.30;;;;;;;-3.97;71.16;100373.42;103404;1316;109495;-66
2021/12/23 09:26:15;;;;;;;67.30;34.40;;;;;;;-3.94;71.38;100361.46;103348;1310;138242;-66
2021/12/23 09:28:54;;;;;;;66.20;33.70;;;;;;;-3.90;70.77;100357.16;103453;1312;96523;-66
2021/12/23 09:34:16;;;;;;;64.70;33.20;;;;;;;-3.73;70.80;100345.07;103347;1313;111073;-66
2021/12/23 09:36:47;;;;;;;65.00;33.40;;;;;;;-3.62;70.94;100344.83;103296;1310;138463;-66
2021/12/23 09:39:21;;;;;;;67.60;33.60;;;;;;;-3.49;70.88;100341.44;103384;1313;108456;-66
2021/12/23 09:41:53;;;;;;;69.70;34.70;;;;;;;-3.40;70.52;100334.36;104712;1312;94751;-67
2021/12/23 09:44:25;;;;;;;63.40;33.70;;;;;;;-3.33;70.39;100334.36;104354;1312;138821;-67
2021/12/23 09:47:02;;;;;;;65.60;33.10;;;;;;;-3.27;70.12;100333.83;104773;1311;111073;-67
2021/12/23 09:49:35;;;;;;;67.80;34.20;;;;;;;-3.23;69.93;100329.69;104501;1312;138910;-66
2021/12/23 09:52:08;;;;;;;62.80;31.90;;;;;;;-3.17;69.79;100332.72;104700;1314;108944;-66
2021/12/23 09:54:44;;;;;;;69.40;33.10;;;;;;;-3.16;69.36;100325.60;104593;1312;140792;-66
2021/12/23 09:57:16;;;;;;;67.60;34.20;;;;;;;-3.15;69.59;100317.13;104776;1312;94651;-66
2021/12/23 09:59:49;;;;;;;68.10;34.20;;;;;;;-3.10;69.65;100316.56;103703;1312;110332;-66
2021/12/23 10:02:22;;;;;;;72.00;34.50;;;;;;;-3.08;69.17;100312.87;103311;1312;138276;-66
2021/12/23 10:04:54;;;;;;;68.40;35.10;;;;;;;-3.07;69.10;100312.39;103462;1313;108902;-65
2021/12/23 10:07:26;;;;;;;62.00;33.40;;;;;;;-3.05;69.07;100305.64;103212;1313;139159;-68
2021/12/23 10:10:05;;;;;;;63.40;33.50;;;;;;;-2.97;69.21;100297.99;103292;1312;96636;-66
2021/12/23 10:30:18;;;;;;;63.70;34.10;;;;;;;-2.54;67.61;100268.98;103716;1314;109070;-66
2021/12/23 10:38:38;;;;;;;65.30;32.90;;;;;;;-2.43;67.63;100245.22;102945;1320;137851;-66
2021/12/23 10:41:13;;;;;;;65.20;33.60;;;;;;;-2.38;67.50;100234.58;103085;1313;111790;-68
2021/12/23 10:43:49;;;;;;;59.60;32.10;;;;;;;-2.32;67.29;100233.84;102975;1316;138223;-67
2021/12/23 10:46:25;;;;;;;63.20;32.60;;;;;;;-2.31;67.14;100228.45;103059;1314;109253;-66
2021/12/23 10:49:11;;;;;;;61.00;32.50;;;;;;;-2.28;66.98;100225.41;102935;1314;139947;-67
2021/12/23 10:51:59;;;;;;;66.00;33.10;;;;;;;-2.29;66.91;100214.85;103073;1314;96664;-67
2021/12/23 11:00:23;;;;;;;62.30;32.70;;;;;;;-2.16;66.92;100190.22;103526;1313;108990;-66
2021/12/23 11:03:09;;;;;;;62.80;32.80;;;;;;;-2.12;66.51;100178.54;103941;1310;138694;-66
2021/12/23 11:05:48;;;;;;;66.90;34.00;;;;;;;-2.07;66.92;100174.35;104970;1313;94810;-66
2021/12/23 11:08:30;;;;;;;62.70;33.00;;;;;;;-2.02;66.54;100159.77;104758;1310;138366;-67
2021/12/23 11:37:36;;;;;;;;;;;;;;;-1.75;66.28;100087.47;102724;1318;138532;-67
2021/12/23 11:40:23;;;;;;;61.40;30.10;;;;;;;-1.78;65.89;100090.33;102741;1322;108960;-67
2021/12/23 11:43:25;;;;;;;44.00;28.10;;;;;;;-1.85;65.99;100077.60;103203;1322;108969;-67
2021/12/23 11:45:55;;;;;;;59.30;29.40;;;;;;;-1.92;65.89;100067.80;102800;1328;94757;-67
2021/12/23 11:48:27;;;;;;;58.70;31.30;;;;;;;-1.93;66.26;100060.61;103923;1318;94840;-67
2021/12/23 11:51:07;;;;;;;55.90;30.30;;;;;;;-1.93;66.20;100052.27;102618;1326;139179;-68
2021/12/23 11:53:39;;;;;;;57.20;30.70;;;;;;;-1.95;66.35;100049.52;102686;1321;109110;-66
2021/12/23 11:56:13;;;;;;;54.30;29.30;;;;;;;-1.97;65.79;100039.77;102374;1318;138120;-66
2021/12/23 11:58:47;;;;;;;48.20;27.10;;;;;;;-2.00;65.90;100031.36;102748;1321;96512;-67
2021/12/23 12:01:21;;;;;;;51.10;28.30;;;;;;;-2.02;65.96;100019.40;102982;1316;97514;-67
2021/12/23 12:03:58;;;;;;;58.50;29.00;;;;;;;-2.01;66.38;100014.31;103099;1331;140263;-67
2021/12/23 12:06:38;;;;;;;58.60;29.30;;;;;;;-2.00;66.01;100007.00;103261;1316;108848;-68
2021/12/23 12:09:19;;;;;;;55.70;28.00;;;;;;;-2.01;65.94;100005.45;103487;1319;138298;-67
2021/12/23 12:12:06;;;;;;;49.00;26.80;;;;;;;-2.03;66.16;99997.07;103124;1316;96703;-66
2021/12/23 12:14:47;;;;;;;53.50;29.40;;;;;;;-2.04;66.18;99991.10;103504;1310;138764;-67
2021/12/23 12:17:49;;;;;;;56.70;28.70;;;;;;;-2.03;66.60;99986.67;103500;1315;110515;-66
2021/12/23 12:20:36;;;;;;;54.70;27.40;;;;;;;-2.03;66.24;99987.71;102901;1316;137443;-66
2021/12/23 12:23:13;;;;;;;49.80;27.30;;;;;;;-2.05;65.89;99974.55;104006;1317;108383;-67
2021/12/23 12:25:57;;;;;;;53.40;27.20;;;;;;;-2.09;65.87;99973.99;102949;1315;139697;-66
2021/12/23 12:28:46;;;;;;;49.90;25.90;;;;;;;-2.10;66.29;99969.73;104271;1317;94815;-67
2021/12/23 12:31:21;;;;;;;50.50;27.50;;;;;;;-2.11;66.44;99964.27;103679;1316;112734;-67
2021/12/23 12:34:05;;;;;;;47.10;27.10;;;;;;;-2.10;66.24;99957.63;103226;1319;137740;-66